createdAt,value
2022-09-22T00:01:42.265Z,9.00
2022-09-22T00:04:29.303Z,8.90
2022-09-22T00:07:17.045Z,8.90
2022-09-22T00:10:03.330Z,8.90
2022-09-22T00:12:49.930Z,9.00
2022-09-22T00:15:36.606Z,9.00
2022-09-22T00:18:22.972Z,9.00
2022-09-22T00:21:12.323Z,8.90
2022-09-22T00:24:02.251Z,8.80
2022-09-22T00:26:48.537Z,8.90
2022-09-22T00:29:34.838Z,8.90
2022-09-22T00:32:21.133Z,8.90
2022-09-22T00:35:09.167Z,8.80
2022-09-22T00:37:55.628Z,8.60
2022-09-22T00:40:43.702Z,8.70
2022-09-22T00:43:36.456Z,8.70
2022-09-22T00:46:26.464Z,8.70
2022-09-22T00:49:15.347Z,8.70
2022-09-22T00:52:02.435Z,8.70
2022-09-22T00:54:49.583Z,8.60
2022-09-22T00:57:39.805Z,8.60
2022-09-22T01:00:26.212Z,8.60
2022-09-22T01:03:17.627Z,8.70
2022-09-22T01:06:09.379Z,8.50
2022-09-22T01:08:56.758Z,8.50
2022-09-22T01:11:44.131Z,8.50
2022-09-22T01:14:46.475Z,8.50
2022-09-22T01:17:39.173Z,8.30
2022-09-22T01:21:11.362Z,8.40
2022-09-22T01:24:46.033Z,8.40
2022-09-22T01:28:04.226Z,8.40
2022-09-22T01:30:58.621Z,8.40
2022-09-22T01:33:50.493Z,8.30
2022-09-22T01:36:43.265Z,8.30
2022-09-22T01:39:36.783Z,8.30
2022-09-22T01:42:31.207Z,8.20
2022-09-22T01:45:22.471Z,8.30
2022-09-22T01:48:18.257Z,8.10
2022-09-22T01:51:10.945Z,8.00
2022-09-22T01:54:02.452Z,7.90
2022-09-22T01:56:54.929Z,7.80
2022-09-22T01:59:44.688Z,7.40
2022-09-22T02:02:36.417Z,7.30
2022-09-22T02:05:30.755Z,7.30
2022-09-22T02:08:20.684Z,7.50
2022-09-22T02:11:12.013Z,7.50
2022-09-22T02:13:58.743Z,7.60
2022-09-22T02:16:45.484Z,7.70
2022-09-22T02:19:36.993Z,7.80
2022-09-22T02:22:24.887Z,7.90
2022-09-22T02:25:12.896Z,7.90
2022-09-22T02:28:00.487Z,8.00
2022-09-22T02:31:10.419Z,8.10
2022-09-22T02:33:57.344Z,8.10
2022-09-22T02:36:56.439Z,8.00
2022-09-22T02:39:50.338Z,8.00
2022-09-22T02:42:42.697Z,7.90
2022-09-22T02:45:33.893Z,7.90
2022-09-22T02:48:25.443Z,7.80
2022-09-22T02:51:12.077Z,7.80
2022-09-22T02:53:58.907Z,7.70
2022-09-22T02:56:47.021Z,7.80
2022-09-22T02:59:33.587Z,7.80
2022-09-22T03:02:19.952Z,7.80
2022-09-22T03:05:07.238Z,7.70
2022-09-22T03:07:54.019Z,7.80
2022-09-22T03:10:40.445Z,7.70
2022-09-22T03:13:28.159Z,7.80
2022-09-22T03:16:14.418Z,7.80
2022-09-22T03:19:01.271Z,7.70
2022-09-22T03:21:47.752Z,7.70
2022-09-22T03:24:34.264Z,7.60
2022-09-22T03:27:20.575Z,7.40
2022-09-22T03:30:10.448Z,7.50
2022-09-22T03:32:57.572Z,7.50
2022-09-22T03:35:44.182Z,7.60
2022-09-22T03:38:30.872Z,7.50
2022-09-22T03:41:17.434Z,7.50
2022-09-22T03:44:06.068Z,7.40
2022-09-22T03:46:54.091Z,7.50
2022-09-22T03:49:40.630Z,7.50
2022-09-22T03:52:27.324Z,7.50
2022-09-22T03:55:13.803Z,7.40
2022-09-22T03:58:00.387Z,7.50
2022-09-22T04:00:47.106Z,7.40
2022-09-22T04:03:35.320Z,7.40
2022-09-22T04:06:22.184Z,7.30
2022-09-22T04:09:09.030Z,7.30
2022-09-22T04:11:55.617Z,7.20
2022-09-22T04:14:42.102Z,7.20
2022-09-22T04:17:29.266Z,7.20
2022-09-22T04:20:17.068Z,7.20
2022-09-22T04:23:03.627Z,7.20
2022-09-22T04:25:50.141Z,7.30
2022-09-22T04:28:36.679Z,7.40
2022-09-22T04:31:23.860Z,7.40
2022-09-22T04:34:10.274Z,7.30
2022-09-22T04:36:57.924Z,7.40
2022-09-22T04:39:44.536Z,7.30
2022-09-22T04:42:31.199Z,7.40
2022-09-22T04:45:18.047Z,7.50
2022-09-22T04:48:05.504Z,7.40
2022-09-22T04:50:51.993Z,7.50
2022-09-22T04:53:39.727Z,7.40
2022-09-22T04:56:26.344Z,7.30
2022-09-22T04:59:13.071Z,7.30
2022-09-22T05:01:59.439Z,7.20
2022-09-22T05:04:45.753Z,7.20
2022-09-22T05:07:32.091Z,7.20
2022-09-22T05:10:20.048Z,7.30
2022-09-22T05:13:06.796Z,7.20
2022-09-22T05:15:53.443Z,7.30
2022-09-22T05:18:40.150Z,7.30
2022-09-22T05:21:26.710Z,7.30
2022-09-22T05:24:12.973Z,7.30
2022-09-22T05:27:00.823Z,7.40
2022-09-22T05:29:47.098Z,7.40
2022-09-22T05:32:33.393Z,7.50
2022-09-22T05:35:21.739Z,7.40
2022-09-22T05:38:08.623Z,7.50
2022-09-22T05:40:55.345Z,7.60
2022-09-22T05:43:43.069Z,7.80
2022-09-22T05:46:29.523Z,7.80
2022-09-22T05:49:16.110Z,7.80
2022-09-22T05:52:03.167Z,8.00
2022-09-22T05:54:49.614Z,8.30
2022-09-22T05:57:36.235Z,8.60
2022-09-22T06:00:24.450Z,9.00
2022-09-22T06:03:11.428Z,9.00
2022-09-22T06:05:57.900Z,8.90
2022-09-22T06:08:48.628Z,8.90
2022-09-22T06:11:35.590Z,9.40
2022-09-22T06:14:21.957Z,9.90
2022-09-22T06:17:11.704Z,10.60
2022-09-22T06:20:00.776Z,11.50
2022-09-22T06:22:47.789Z,12.30
2022-09-22T06:25:34.576Z,12.90
2022-09-22T06:28:20.976Z,13.50
2022-09-22T06:31:07.763Z,14.20
2022-09-22T06:33:55.597Z,14.40
2022-09-22T06:36:45.171Z,15.00
2022-09-22T06:39:31.646Z,14.60
2022-09-22T06:42:18.016Z,14.70
2022-09-22T06:45:05.190Z,15.30
2022-09-22T06:47:52.239Z,15.60
2022-09-22T06:50:41.330Z,16.00
2022-09-22T06:53:28.128Z,15.70
2022-09-22T06:56:14.564Z,15.50
2022-09-22T06:59:16.436Z,16.00
2022-09-22T07:02:07.516Z,15.70
2022-09-22T07:04:54.009Z,15.80
2022-09-22T07:07:41.748Z,16.20
2022-09-22T07:10:28.503Z,16.40
2022-09-22T07:13:15.407Z,16.60
2022-09-22T07:16:02.179Z,16.50
2022-09-22T07:18:50.616Z,16.00
2022-09-22T07:21:37.709Z,15.90
2022-09-22T07:24:27.770Z,16.00
2022-09-22T07:27:14.628Z,16.10
2022-09-22T07:30:01.468Z,16.20
2022-09-22T07:32:47.848Z,16.50
2022-09-22T07:35:35.181Z,15.90
2022-09-22T07:38:21.570Z,15.90
2022-09-22T07:41:12.394Z,15.80
2022-09-22T07:44:20.762Z,16.20
2022-09-22T07:47:07.571Z,16.40
2022-09-22T07:49:53.961Z,16.40
2022-09-22T07:52:40.248Z,17.20
2022-09-22T07:55:26.806Z,18.20
2022-09-22T07:58:17.393Z,18.50
2022-09-22T08:01:09.043Z,17.70
2022-09-22T08:03:57.796Z,17.30
2022-09-22T08:06:44.625Z,16.80
2022-09-22T08:09:31.631Z,17.10
2022-09-22T08:12:18.272Z,17.50
2022-09-22T08:15:07.348Z,16.90
2022-09-22T08:17:57.969Z,17.50
2022-09-22T08:20:45.164Z,17.90
2022-09-22T08:23:32.518Z,18.70
2022-09-22T08:26:18.709Z,19.20
2022-09-22T08:29:06.600Z,19.30
2022-09-22T08:31:54.939Z,19.50
2022-09-22T08:34:41.801Z,19.50
2022-09-22T08:37:28.254Z,19.90
2022-09-22T08:40:20.925Z,20.40
2022-09-22T08:43:11.084Z,20.30
2022-09-22T08:45:59.899Z,19.40
2022-09-22T08:49:07.457Z,18.80
2022-09-22T08:51:57.881Z,18.90
2022-09-22T08:54:45.570Z,19.50
2022-09-22T08:57:56.034Z,19.30
2022-09-22T09:00:52.364Z,19.00
2022-09-22T09:04:06.869Z,18.90
2022-09-22T09:07:01.225Z,19.10
2022-09-22T09:09:57.885Z,19.70
2022-09-22T09:13:02.465Z,19.80
2022-09-22T09:16:05.920Z,20.20
2022-09-22T09:18:56.233Z,19.90
2022-09-22T09:21:50.524Z,19.90
2022-09-22T09:27:51.484Z,19.40
2022-09-22T09:30:44.008Z,19.60
2022-09-22T09:33:41.002Z,18.70
2022-09-22T09:36:33.111Z,18.80
2022-09-22T09:39:27.290Z,19.40
2022-09-22T09:42:24.997Z,20.10
2022-09-22T09:45:15.138Z,19.60
2022-09-22T09:48:22.823Z,20.00
2022-09-22T09:51:14.221Z,19.30
2022-09-22T09:54:05.433Z,18.90
2022-09-22T09:57:11.317Z,19.40
2022-09-22T10:00:33.842Z,19.60
2022-09-22T10:03:26.491Z,19.40
2022-09-22T10:06:13.697Z,19.60
2022-09-22T10:09:00.246Z,19.60
2022-09-22T10:11:59.225Z,18.90
2022-09-22T10:14:50.577Z,19.00
2022-09-22T10:17:41.790Z,19.40
2022-09-22T10:20:31.505Z,19.70
2022-09-22T10:23:22.612Z,19.40
2022-09-22T10:26:18.847Z,19.40
2022-09-22T10:29:15.275Z,19.50
2022-09-22T10:32:07.448Z,19.90
2022-09-22T10:34:57.099Z,19.70
2022-09-22T10:37:43.573Z,19.40
2022-09-22T10:40:32.787Z,19.10
2022-09-22T10:43:31.936Z,19.30
2022-09-22T10:46:43.119Z,19.50
2022-09-22T10:49:47.651Z,19.60
2022-09-22T10:52:38.868Z,19.20
2022-09-22T10:55:31.005Z,18.60
2022-09-22T10:58:27.756Z,18.20
2022-09-22T11:01:40.198Z,18.20
2022-09-22T11:04:44.400Z,18.50
2022-09-22T11:08:07.125Z,19.50
2022-09-22T11:11:20.201Z,19.30
2022-09-22T11:14:17.420Z,19.40
2022-09-22T11:17:17.550Z,19.50
2022-09-22T11:20:32.260Z,19.00
2022-09-22T11:23:29.296Z,19.60
2022-09-22T11:26:29.959Z,19.10
2022-09-22T11:29:56.774Z,19.80
2022-09-22T11:33:02.271Z,19.50
2022-09-22T11:36:04.153Z,19.40
2022-09-22T11:39:22.096Z,19.30
2022-09-22T11:42:18.853Z,19.30
2022-09-22T11:45:14.568Z,19.60
2022-09-22T11:48:12.292Z,19.50
2022-09-22T11:51:23.476Z,19.90
2022-09-22T11:54:28.270Z,20.00
2022-09-22T11:57:19.251Z,19.90
2022-09-22T12:00:12.955Z,19.60
2022-09-22T12:03:02.990Z,19.50
2022-09-22T12:05:54.335Z,19.70
2022-09-22T12:08:46.854Z,19.80
2022-09-22T12:11:37.405Z,20.10
2022-09-22T12:14:24.190Z,20.10
2022-09-22T12:17:21.454Z,19.80
2022-09-22T12:20:27.418Z,19.70
2022-09-22T12:23:39.034Z,19.70
2022-09-22T12:26:32.539Z,19.80
2022-09-22T12:29:28.727Z,20.10
2022-09-22T12:32:24.970Z,20.40
2022-09-22T12:35:20.235Z,20.00
2022-09-22T12:38:06.919Z,19.90
2022-09-22T12:40:58.360Z,20.00
2022-09-22T12:43:47.436Z,20.00
2022-09-22T12:46:34.219Z,19.70
2022-09-22T12:49:23.395Z,19.70
2022-09-22T12:52:43.468Z,20.10
2022-09-22T12:55:38.230Z,20.10
2022-09-22T12:58:42.197Z,20.20
2022-09-22T13:01:35.096Z,20.00
2022-09-22T13:04:21.948Z,19.50
2022-09-22T13:07:35.550Z,19.50
2022-09-22T13:11:00.926Z,19.10
2022-09-22T13:13:48.620Z,18.80
2022-09-22T13:16:37.509Z,19.00
2022-09-22T13:19:24.129Z,18.90
2022-09-22T13:22:19.102Z,19.00
2022-09-22T13:25:16.109Z,19.10
2022-09-22T13:28:11.538Z,19.40
2022-09-22T13:31:06.001Z,19.30
2022-09-22T13:33:54.521Z,19.30
2022-09-22T13:36:41.707Z,19.10
2022-09-22T13:39:32.343Z,19.20
2022-09-22T13:42:23.202Z,19.30
2022-09-22T13:45:18.934Z,19.20
2022-09-22T13:48:09.785Z,19.10
2022-09-22T13:51:01.109Z,19.10
2022-09-22T13:53:51.071Z,19.00
2022-09-22T13:56:37.862Z,19.00
2022-09-22T13:59:25.979Z,18.90
2022-09-22T14:02:14.337Z,18.80
2022-09-22T14:05:03.812Z,18.60
2022-09-22T14:08:11.173Z,18.60
2022-09-22T14:11:00.289Z,18.50
2022-09-22T14:13:58.676Z,18.50
2022-09-22T14:16:49.376Z,18.60
2022-09-22T14:19:39.936Z,18.50
2022-09-22T14:22:28.463Z,18.60
2022-09-22T14:25:20.093Z,18.60
2022-09-22T14:28:06.703Z,18.50
2022-09-22T14:30:53.465Z,18.40
2022-09-22T14:33:44.034Z,18.60
2022-09-22T14:36:30.860Z,18.70
2022-09-22T14:39:22.337Z,18.60
2022-09-22T14:42:18.625Z,18.40
2022-09-22T14:45:19.991Z,18.40
2022-09-22T14:48:20.611Z,18.50
2022-09-22T14:51:10.274Z,18.40
2022-09-22T14:54:01.489Z,18.50
2022-09-22T14:56:48.028Z,18.50
2022-09-22T14:59:55.992Z,18.50
2022-09-22T15:02:47.012Z,18.40
2022-09-22T15:05:34.205Z,18.40
2022-09-22T15:08:27.683Z,18.40
2022-09-22T15:11:14.576Z,18.40
2022-09-22T15:14:01.356Z,18.40
2022-09-22T15:16:49.305Z,18.40
2022-09-22T15:19:37.789Z,18.40
2022-09-22T15:22:26.950Z,18.40
2022-09-22T15:25:16.065Z,18.30
2022-09-22T15:28:07.464Z,18.30
2022-09-22T15:30:54.287Z,18.30
2022-09-22T15:33:42.293Z,18.30
2022-09-22T15:36:32.021Z,18.20
2022-09-22T15:39:22.771Z,18.20
2022-09-22T15:42:12.065Z,18.20
2022-09-22T15:44:58.577Z,18.20
2022-09-22T15:47:45.434Z,18.20
2022-09-22T15:50:34.495Z,18.10
2022-09-22T15:53:21.242Z,18.00
2022-09-22T15:56:13.775Z,18.00
2022-09-22T15:59:02.045Z,17.90
2022-09-22T16:01:48.861Z,17.90
2022-09-22T16:04:35.129Z,17.90
2022-09-22T16:07:23.196Z,17.90
2022-09-22T16:10:14.336Z,18.00
2022-09-22T16:13:02.006Z,17.90
2022-09-22T16:15:50.246Z,17.90
2022-09-22T16:18:41.751Z,17.90
2022-09-22T16:21:30.207Z,17.80
2022-09-22T16:24:18.899Z,17.80
2022-09-22T16:27:07.245Z,17.70
2022-09-22T16:29:54.151Z,17.70
2022-09-22T16:32:40.779Z,17.70
2022-09-22T16:35:27.326Z,17.80
2022-09-22T16:38:13.737Z,17.80
2022-09-22T16:41:06.221Z,17.70
2022-09-22T16:43:53.281Z,17.60
2022-09-22T16:46:39.719Z,17.60
2022-09-22T16:49:26.720Z,17.50
2022-09-22T16:52:13.202Z,17.40
2022-09-22T16:55:00.826Z,17.40
2022-09-22T16:57:48.636Z,17.40
2022-09-22T17:00:37.108Z,17.30
2022-09-22T17:03:23.682Z,17.10
2022-09-22T17:06:11.429Z,17.00
2022-09-22T17:08:59.503Z,16.80
2022-09-22T17:11:48.015Z,16.50
2022-09-22T17:14:36.971Z,16.40
2022-09-22T17:17:23.313Z,16.20
2022-09-22T17:20:10.357Z,16.10
2022-09-22T17:22:57.009Z,16.00
2022-09-22T17:25:46.772Z,15.80
2022-09-22T17:28:33.375Z,15.50
2022-09-22T17:31:23.527Z,15.30
2022-09-22T17:34:10.707Z,15.20
2022-09-22T17:36:58.146Z,15.00
2022-09-22T17:39:44.775Z,14.90
2022-09-22T17:42:35.687Z,14.60
2022-09-22T17:45:22.080Z,14.40
2022-09-22T17:48:27.486Z,14.20
2022-09-22T17:51:51.460Z,14.10
2022-09-22T17:54:57.726Z,14.00
2022-09-22T17:57:46.360Z,13.90
2022-09-22T18:00:33.741Z,14.00
2022-09-22T18:03:21.532Z,13.90
2022-09-22T18:06:14.473Z,13.80
2022-09-22T18:09:02.134Z,13.60
2022-09-22T18:11:48.920Z,13.50
2022-09-22T18:14:35.576Z,13.30
2022-09-22T18:17:24.596Z,13.10
2022-09-22T18:20:14.909Z,13.00
2022-09-22T18:23:02.356Z,13.00
2022-09-22T18:25:51.143Z,13.10
2022-09-22T18:28:37.575Z,13.20
2022-09-22T18:31:27.246Z,13.10
2022-09-22T18:34:14.198Z,12.80
2022-09-22T18:37:03.137Z,12.60
2022-09-22T18:39:50.402Z,12.50
2022-09-22T18:42:37.459Z,12.50
2022-09-22T18:45:25.144Z,12.30
2022-09-22T18:48:11.900Z,12.20
2022-09-22T18:51:00.272Z,12.30
2022-09-22T18:53:48.149Z,12.40
2022-09-22T18:56:35.879Z,12.60
2022-09-22T18:59:24.349Z,12.70
2022-09-22T19:02:12.263Z,12.80
2022-09-22T19:04:58.925Z,12.50
2022-09-22T19:07:47.548Z,12.30
2022-09-22T19:10:35.541Z,12.10
2022-09-22T19:13:21.936Z,12.00
2022-09-22T19:16:09.584Z,11.90
2022-09-22T19:18:56.102Z,12.00
2022-09-22T19:21:43.136Z,12.10
2022-09-22T19:24:31.642Z,12.20
2022-09-22T19:27:22.676Z,12.30
2022-09-22T19:30:11.261Z,12.30
2022-09-22T19:32:57.760Z,12.00
2022-09-22T19:35:44.199Z,11.70
2022-09-22T19:38:31.723Z,11.30
2022-09-22T19:41:18.033Z,11.20
2022-09-22T19:44:06.024Z,11.20
2022-09-22T19:46:52.890Z,11.40
2022-09-22T19:49:40.761Z,11.60
2022-09-22T19:52:27.153Z,11.60
2022-09-22T19:55:13.412Z,11.60
2022-09-22T19:57:59.670Z,11.70
2022-09-22T20:00:47.556Z,11.60
2022-09-22T20:03:33.991Z,11.70
2022-09-22T20:06:20.241Z,11.50
2022-09-22T20:09:06.766Z,11.40
2022-09-22T20:11:53.171Z,11.40
2022-09-22T20:14:39.494Z,11.30
2022-09-22T20:17:28.831Z,11.40
2022-09-22T20:20:16.237Z,11.40
2022-09-22T20:23:04.043Z,11.50
2022-09-22T20:25:51.242Z,11.60
2022-09-22T20:28:39.620Z,11.60
2022-09-22T20:31:26.027Z,11.40
2022-09-22T20:34:16.355Z,11.20
2022-09-22T20:37:02.656Z,11.30
2022-09-22T20:39:49.225Z,11.40
2022-09-22T20:42:35.968Z,11.50
2022-09-22T20:45:24.784Z,11.50
2022-09-22T20:48:16.974Z,11.50
2022-09-22T20:51:05.107Z,11.50
2022-09-22T20:53:51.420Z,11.50
2022-09-22T20:56:42.465Z,11.40
2022-09-22T20:59:29.693Z,11.40
2022-09-22T21:02:16.892Z,11.40
2022-09-22T21:05:03.566Z,11.40
2022-09-22T21:08:12.439Z,11.50
2022-09-22T21:10:57.824Z,11.50
2022-09-22T21:13:44.642Z,11.50
2022-09-22T21:16:31.517Z,11.50
2022-09-22T21:19:18.582Z,11.40
2022-09-22T21:22:06.093Z,11.40
2022-09-22T21:24:54.695Z,11.40
2022-09-22T21:27:41.298Z,11.30
2022-09-22T21:30:27.618Z,11.10
2022-09-22T21:33:13.995Z,11.20
2022-09-22T21:36:02.580Z,11.10
2022-09-22T21:38:50.838Z,11.10
2022-09-22T21:41:38.517Z,11.10
2022-09-22T21:44:25.205Z,11.20
2022-09-22T21:47:11.737Z,11.20
2022-09-22T21:49:58.043Z,11.30
2022-09-22T21:52:45.560Z,11.20
2022-09-22T21:55:32.030Z,11.20
2022-09-22T21:58:20.117Z,11.20
2022-09-22T22:01:08.595Z,11.20
2022-09-22T22:03:56.431Z,11.20
2022-09-22T22:06:44.532Z,11.20
2022-09-22T22:09:30.781Z,11.30
2022-09-22T22:12:17.208Z,11.20
2022-09-22T22:15:05.717Z,11.40
2022-09-22T22:17:52.366Z,11.30
2022-09-22T22:20:38.677Z,11.40
2022-09-22T22:23:26.132Z,11.40
2022-09-22T22:26:14.607Z,11.40
2022-09-22T22:29:01.323Z,11.30
2022-09-22T22:31:50.456Z,11.40
2022-09-22T22:34:38.171Z,11.40
2022-09-22T22:37:24.994Z,11.30
2022-09-22T22:40:11.709Z,11.30
2022-09-22T22:42:58.561Z,11.40
2022-09-22T22:45:45.981Z,11.40
2022-09-22T22:48:35.972Z,11.40
2022-09-22T22:51:22.984Z,11.40
2022-09-22T22:54:11.027Z,11.30
2022-09-22T22:56:57.412Z,11.30
2022-09-22T22:59:43.778Z,11.40
2022-09-22T23:02:31.270Z,11.30
2022-09-22T23:05:19.511Z,11.30
2022-09-22T23:08:05.963Z,11.40
2022-09-22T23:10:58.797Z,11.40
2022-09-22T23:13:50.783Z,11.40
2022-09-22T23:16:39.084Z,11.20
2022-09-22T23:19:25.697Z,11.30
2022-09-22T23:22:13.796Z,11.30
2022-09-22T23:25:00.473Z,11.30
2022-09-22T23:27:48.882Z,11.40
2022-09-22T23:30:35.825Z,11.30
2022-09-22T23:33:22.693Z,11.30
2022-09-22T23:36:11.640Z,11.20
2022-09-22T23:39:03.530Z,11.10
2022-09-22T23:41:51.744Z,11.10
2022-09-22T23:44:38.484Z,11.00
2022-09-22T23:47:24.863Z,10.90
2022-09-22T23:50:11.296Z,10.90
2022-09-22T23:52:59.324Z,10.80
2022-09-22T23:55:47.348Z,10.70
2022-09-22T23:58:34.683Z,10.60
